sensor_id;sensor_type;location;lat;lon;timestamp;pressure;altitude;pressure_sealevel;temperature;humidity
6506;BME280;3286;49.858;8.768;2023-02-13T00:00:27;101288.19;;;7.90;58.63
6506;BME280;3286;49.858;8.768;2023-02-13T00:02:54;101292.19;;;7.97;58.64
6506;BME280;3286;49.858;8.768;2023-02-13T00:05:20;101277.56;;;7.76;59.02
6506;BME280;3286;49.858;8.768;2023-02-13T00:07:47;101282.44;;;7.66;59.38
6506;BME280;3286;49.858;8.768;2023-02-13T00:10:15;101289.13;;;7.56;59.86
6506;BME280;3286;49.858;8.768;2023-02-13T00:12:42;101279.81;;;7.13;61.07
6506;BME280;3286;49.858;8.768;2023-02-13T00:15:09;101279.75;;;7.50;59.89
6506;BME280;3286;49.858;8.768;2023-02-13T00:17:36;101284.69;;;7.56;60.05
6506;BME280;3286;49.858;8.768;2023-02-13T00:20:03;101278.44;;;7.75;59.29
6506;BME280;3286;49.858;8.768;2023-02-13T00:22:34;101277.78;;;8.21;57.80
6506;BME280;3286;49.858;8.768;2023-02-13T00:25:01;101280.91;;;8.11;58.31
6506;BME280;3286;49.858;8.768;2023-02-13T00:27:29;101279.63;;;8.03;59.18
6506;BME280;3286;49.858;8.768;2023-02-13T00:29:55;101276.59;;;8.26;57.94
6506;BME280;3286;49.858;8.768;2023-02-13T00:32:22;101280.28;;;7.90;58.77
6506;BME280;3286;49.858;8.768;2023-02-13T00:34:49;101279.13;;;8.12;58.34
6506;BME280;3286;49.858;8.768;2023-02-13T00:37:15;101283.84;;;7.56;60.64
6506;BME280;3286;49.858;8.768;2023-02-13T00:39:42;101275.03;;;7.57;61.01
6506;BME280;3286;49.858;8.768;2023-02-13T00:42:08;101284.31;;;6.93;62.86
6506;BME280;3286;49.858;8.768;2023-02-13T00:44:36;101276.03;;;7.19;62.81
6506;BME280;3286;49.858;8.768;2023-02-13T00:47:03;101276.81;;;7.21;62.35
6506;BME280;3286;49.858;8.768;2023-02-13T00:49:30;101279.03;;;7.11;62.28
6506;BME280;3286;49.858;8.768;2023-02-13T00:51:56;101279.09;;;6.92;62.89
6506;BME280;3286;49.858;8.768;2023-02-13T00:54:23;101276.56;;;6.90;63.14
6506;BME280;3286;49.858;8.768;2023-02-13T00:56:50;101276.41;;;6.93;63.15
6506;BME280;3286;49.858;8.768;2023-02-13T00:59:16;101280.44;;;6.83;62.66
6506;BME280;3286;49.858;8.768;2023-02-13T01:01:44;101280.06;;;7.08;62.63
6506;BME280;3286;49.858;8.768;2023-02-13T01:04:11;101266.94;;;7.08;61.80
6506;BME280;3286;49.858;8.768;2023-02-13T01:06:37;101273.22;;;7.57;60.69
6506;BME280;3286;49.858;8.768;2023-02-13T01:09:04;101283.63;;;7.07;62.19
6506;BME280;3286;49.858;8.768;2023-02-13T01:11:31;101276.66;;;7.42;60.85
6506;BME280;3286;49.858;8.768;2023-02-13T01:13:57;101268.94;;;7.03;61.56
6506;BME280;3286;49.858;8.768;2023-02-13T01:16:24;101262.00;;;7.53;60.00
6506;BME280;3286;49.858;8.768;2023-02-13T01:18:52;101264.16;;;7.96;58.99
6506;BME280;3286;49.858;8.768;2023-02-13T01:21:20;101269.50;;;7.61;59.75
6506;BME280;3286;49.858;8.768;2023-02-13T01:23:48;101264.91;;;7.82;58.60
6506;BME280;3286;49.858;8.768;2023-02-13T01:26:16;101264.03;;;7.66;59.25
6506;BME280;3286;49.858;8.768;2023-02-13T01:28:43;101261.50;;;7.29;60.18
6506;BME280;3286;49.858;8.768;2023-02-13T01:31:10;101262.09;;;7.52;59.24
6506;BME280;3286;49.858;8.768;2023-02-13T01:33:38;101268.47;;;7.48;59.11
6506;BME280;3286;49.858;8.768;2023-02-13T01:36:12;101270.16;;;7.14;59.97
6506;BME280;3286;49.858;8.768;2023-02-13T01:38:39;101268.63;;;7.09;60.08
6506;BME280;3286;49.858;8.768;2023-02-13T01:41:07;101268.06;;;7.03;59.68
6506;BME280;3286;49.858;8.768;2023-02-13T01:43:45;101272.78;;;7.14;60.21
6506;BME280;3286;49.858;8.768;2023-02-13T01:46:15;101272.75;;;7.15;59.42
6506;BME280;3286;49.858;8.768;2023-02-13T01:48:43;101267.44;;;6.98;60.53
6506;BME280;3286;49.858;8.768;2023-02-13T01:51:16;101265.84;;;7.13;59.35
6506;BME280;3286;49.858;8.768;2023-02-13T01:53:45;101271.97;;;6.76;60.65
6506;BME280;3286;49.858;8.768;2023-02-13T01:56:17;101273.16;;;6.88;60.40
6506;BME280;3286;49.858;8.768;2023-02-13T01:58:46;101254.53;;;6.93;59.74
6506;BME280;3286;49.858;8.768;2023-02-13T02:01:13;101265.31;;;7.23;58.88
6506;BME280;3286;49.858;8.768;2023-02-13T02:03:43;101260.09;;;6.87;59.87
6506;BME280;3286;49.858;8.768;2023-02-13T02:06:16;101261.88;;;6.86;60.14
6506;BME280;3286;49.858;8.768;2023-02-13T02:08:46;101264.16;;;6.94;59.65
6506;BME280;3286;49.858;8.768;2023-02-13T02:11:19;101260.97;;;7.22;58.90
6506;BME280;3286;49.858;8.768;2023-02-13T02:13:48;101267.31;;;7.18;58.46
6506;BME280;3286;49.858;8.768;2023-02-13T02:16:15;101268.47;;;7.13;58.78
6506;BME280;3286;49.858;8.768;2023-02-13T02:18:42;101269.72;;;7.05;58.67
6506;BME280;3286;49.858;8.768;2023-02-13T02:24:35;101272.31;;;6.88;59.14
6506;BME280;3286;49.858;8.768;2023-02-13T02:27:26;101259.25;;;7.04;58.34
6506;BME280;3286;49.858;8.768;2023-02-13T02:33:26;101250.50;;;6.68;59.12
6506;BME280;3286;49.858;8.768;2023-02-13T02:36:04;101246.88;;;6.51;59.98
6506;BME280;3286;49.858;8.768;2023-02-13T02:38:50;101253.72;;;6.56;59.49
6506;BME280;3286;49.858;8.768;2023-02-13T02:41:30;101245.56;;;6.62;59.45
6506;BME280;3286;49.858;8.768;2023-02-13T02:44:16;101246.38;;;6.62;59.27
6506;BME280;3286;49.858;8.768;2023-02-13T02:46:55;101245.09;;;6.71;59.53
6506;BME280;3286;49.858;8.768;2023-02-13T02:49:48;101249.47;;;6.53;59.89
6506;BME280;3286;49.858;8.768;2023-02-13T02:52:38;101253.75;;;6.73;58.96
6506;BME280;3286;49.858;8.768;2023-02-13T02:55:11;101243.91;;;6.59;58.86
6506;BME280;3286;49.858;8.768;2023-02-13T02:57:45;101255.75;;;6.68;58.86
6506;BME280;3286;49.858;8.768;2023-02-13T03:00:34;101256.09;;;6.43;60.09
6506;BME280;3286;49.858;8.768;2023-02-13T03:03:22;101253.16;;;6.49;60.31
6506;BME280;3286;49.858;8.768;2023-02-13T03:06:14;101262.78;;;6.48;59.72
6506;BME280;3286;49.858;8.768;2023-02-13T03:08:45;101255.22;;;6.42;60.13
6506;BME280;3286;49.858;8.768;2023-02-13T03:11:33;101261.38;;;6.41;59.65
6506;BME280;3286;49.858;8.768;2023-02-13T03:14:19;101259.69;;;6.40;59.71
6506;BME280;3286;49.858;8.768;2023-02-13T03:16:47;101254.16;;;6.46;59.27
6506;BME280;3286;49.858;8.768;2023-02-13T03:19:41;101261.19;;;6.46;59.64
6506;BME280;3286;49.858;8.768;2023-02-13T03:22:35;101262.25;;;6.42;57.67
6506;BME280;3286;49.858;8.768;2023-02-13T03:25:11;101266.91;;;5.97;57.53
6506;BME280;3286;49.858;8.768;2023-02-13T03:27:47;101265.34;;;5.92;56.94
6506;BME280;3286;49.858;8.768;2023-02-13T03:30:39;101267.97;;;5.92;57.83
6506;BME280;3286;49.858;8.768;2023-02-13T03:33:20;101272.44;;;5.70;58.69
6506;BME280;3286;49.858;8.768;2023-02-13T03:35:57;101270.25;;;6.00;59.71
6506;BME280;3286;49.858;8.768;2023-02-13T03:38:52;101262.84;;;5.89;60.53
6506;BME280;3286;49.858;8.768;2023-02-13T03:41:24;101263.69;;;5.90;59.12
6506;BME280;3286;49.858;8.768;2023-02-13T03:44:01;101273.16;;;5.73;56.38
6506;BME280;3286;49.858;8.768;2023-02-13T03:46:34;101265.50;;;5.69;56.81
6506;BME280;3286;49.858;8.768;2023-02-13T03:49:03;101268.88;;;5.51;57.58
6506;BME280;3286;49.858;8.768;2023-02-13T03:51:53;101272.09;;;5.38;58.77
6506;BME280;3286;49.858;8.768;2023-02-13T03:54:27;101271.88;;;5.42;58.27
6506;BME280;3286;49.858;8.768;2023-02-13T03:57:17;101266.63;;;5.42;57.23
6506;BME280;3286;49.858;8.768;2023-02-13T04:00:05;101271.94;;;5.20;57.49
6506;BME280;3286;49.858;8.768;2023-02-13T04:02:37;101275.75;;;5.13;58.00
6506;BME280;3286;49.858;8.768;2023-02-13T04:05:07;101280.56;;;5.01;57.63
6506;BME280;3286;49.858;8.768;2023-02-13T04:07:36;101279.44;;;4.86;57.79
6506;BME280;3286;49.858;8.768;2023-02-13T04:10:07;101281.50;;;5.00;57.73
6506;BME280;3286;49.858;8.768;2023-02-13T04:12:39;101283.75;;;4.87;57.81
6506;BME280;3286;49.858;8.768;2023-02-13T04:15:12;101280.72;;;5.19;56.83
6506;BME280;3286;49.858;8.768;2023-02-13T04:17:43;101290.94;;;4.82;57.17
6506;BME280;3286;49.858;8.768;2023-02-13T04:20:11;101283.09;;;4.60;57.92
6506;BME280;3286;49.858;8.768;2023-02-13T04:22:41;101286.09;;;4.73;57.48
6506;BME280;3286;49.858;8.768;2023-02-13T04:25:11;101282.44;;;4.55;57.91
6506;BME280;3286;49.858;8.768;2023-02-13T04:27:39;101285.50;;;4.87;58.16
6506;BME280;3286;49.858;8.768;2023-02-13T04:30:06;101287.47;;;4.82;56.36
6506;BME280;3286;49.858;8.768;2023-02-13T04:32:33;101281.97;;;4.66;57.39
6506;BME280;3286;49.858;8.768;2023-02-13T04:35:00;101280.78;;;4.74;57.68
6506;BME280;3286;49.858;8.768;2023-02-13T04:37:27;101286.56;;;4.60;57.81
6506;BME280;3286;49.858;8.768;2023-02-13T04:39:53;101284.75;;;4.16;59.52
6506;BME280;3286;49.858;8.768;2023-02-13T04:42:21;101286.38;;;4.65;57.45
6506;BME280;3286;49.858;8.768;2023-02-13T04:44:48;101284.53;;;4.45;58.58
6506;BME280;3286;49.858;8.768;2023-02-13T04:47:14;101285.94;;;4.31;61.11
6506;BME280;3286;49.858;8.768;2023-02-13T04:49:41;101284.72;;;4.40;59.94
6506;BME280;3286;49.858;8.768;2023-02-13T04:52:08;101284.47;;;4.69;59.91
6506;BME280;3286;49.858;8.768;2023-02-13T04:54:34;101284.00;;;4.59;59.94
6506;BME280;3286;49.858;8.768;2023-02-13T04:57:01;101284.19;;;4.76;59.11
6506;BME280;3286;49.858;8.768;2023-02-13T04:59:29;101278.91;;;4.78;59.14
6506;BME280;3286;49.858;8.768;2023-02-13T05:01:56;101277.31;;;4.74;58.03
6506;BME280;3286;49.858;8.768;2023-02-13T05:04:23;101269.34;;;4.77;57.63
6506;BME280;3286;49.858;8.768;2023-02-13T05:06:50;101269.09;;;4.61;56.70
6506;BME280;3286;49.858;8.768;2023-02-13T05:09:16;101274.00;;;4.69;56.33
6506;BME280;3286;49.858;8.768;2023-02-13T05:11:43;101270.41;;;4.27;57.30
6506;BME280;3286;49.858;8.768;2023-02-13T05:14:10;101282.06;;;4.18;57.39
6506;BME280;3286;49.858;8.768;2023-02-13T05:16:38;101275.81;;;3.98;58.38
6506;BME280;3286;49.858;8.768;2023-02-13T05:19:04;101274.00;;;4.00;58.25
6506;BME280;3286;49.858;8.768;2023-02-13T05:21:31;101281.78;;;4.02;57.71
6506;BME280;3286;49.858;8.768;2023-02-13T05:24:15;101280.38;;;3.93;58.25
6506;BME280;3286;49.858;8.768;2023-02-13T05:26:42;101277.97;;;4.11;58.10
6506;BME280;3286;49.858;8.768;2023-02-13T05:29:09;101281.25;;;4.16;57.95
6506;BME280;3286;49.858;8.768;2023-02-13T05:31:49;101277.44;;;4.01;58.71
6506;BME280;3286;49.858;8.768;2023-02-13T05:34:17;101289.13;;;3.92;59.72
6506;BME280;3286;49.858;8.768;2023-02-13T05:36:44;101284.75;;;3.67;60.37
6506;BME280;3286;49.858;8.768;2023-02-13T05:39:10;101278.97;;;3.83;59.96
6506;BME280;3286;49.858;8.768;2023-02-13T05:41:37;101282.88;;;3.96;58.69
6506;BME280;3286;49.858;8.768;2023-02-13T05:44:04;101281.28;;;3.92;59.27
6506;BME280;3286;49.858;8.768;2023-02-13T05:46:31;101283.38;;;3.82;58.84
6506;BME280;3286;49.858;8.768;2023-02-13T05:48:59;101286.72;;;3.86;58.50
6506;BME280;3286;49.858;8.768;2023-02-13T05:51:25;101285.78;;;3.63;58.87
6506;BME280;3286;49.858;8.768;2023-02-13T05:53:52;101287.94;;;3.52;58.40
6506;BME280;3286;49.858;8.768;2023-02-13T05:56:19;101285.19;;;3.55;57.83
6506;BME280;3286;49.858;8.768;2023-02-13T05:58:46;101285.09;;;3.32;59.66
6506;BME280;3286;49.858;8.768;2023-02-13T06:01:19;101280.28;;;3.71;58.53
6506;BME280;3286;49.858;8.768;2023-02-13T06:03:53;101275.25;;;3.90;58.59
6506;BME280;3286;49.858;8.768;2023-02-13T06:06:21;101281.41;;;3.63;60.21
6506;BME280;3286;49.858;8.768;2023-02-13T06:08:49;101277.28;;;3.56;60.00
6506;BME280;3286;49.858;8.768;2023-02-13T06:11:16;101283.41;;;3.30;61.66
6506;BME280;3286;49.858;8.768;2023-02-13T06:13:43;101283.03;;;3.15;63.08
6506;BME280;3286;49.858;8.768;2023-02-13T06:16:10;101292.25;;;3.53;61.19
6506;BME280;3286;49.858;8.768;2023-02-13T06:18:37;101283.31;;;3.33;62.28
6506;BME280;3286;49.858;8.768;2023-02-13T06:21:05;101286.34;;;3.47;61.36
6506;BME280;3286;49.858;8.768;2023-02-13T06:23:33;101288.03;;;3.48;60.79
6506;BME280;3286;49.858;8.768;2023-02-13T06:26:03;101288.78;;;3.25;61.03
6506;BME280;3286;49.858;8.768;2023-02-13T06:28:30;101288.28;;;3.41;60.36
6506;BME280;3286;49.858;8.768;2023-02-13T06:30:57;101292.06;;;3.32;60.22
6506;BME280;3286;49.858;8.768;2023-02-13T06:33:24;101290.81;;;3.17;60.66
6506;BME280;3286;49.858;8.768;2023-02-13T06:35:51;101292.06;;;3.32;60.38
6506;BME280;3286;49.858;8.768;2023-02-13T06:38:17;101286.19;;;2.71;62.04
6506;BME280;3286;49.858;8.768;2023-02-13T06:40:47;101288.94;;;2.67;62.47
6506;BME280;3286;49.858;8.768;2023-02-13T06:43:15;101287.31;;;2.91;61.67
6506;BME280;3286;49.858;8.768;2023-02-13T06:45:42;101284.16;;;3.08;60.33
6506;BME280;3286;49.858;8.768;2023-02-13T06:48:11;101285.28;;;3.26;61.54
6506;BME280;3286;49.858;8.768;2023-02-13T06:50:38;101283.31;;;3.33;61.87
6506;BME280;3286;49.858;8.768;2023-02-13T06:53:04;101292.72;;;3.12;60.28
6506;BME280;3286;49.858;8.768;2023-02-13T06:55:31;101297.19;;;1.93;63.38
6506;BME280;3286;49.858;8.768;2023-02-13T06:57:59;101291.69;;;1.70;64.14
6506;BME280;3286;49.858;8.768;2023-02-13T07:00:25;101294.28;;;2.34;62.64
6506;BME280;3286;49.858;8.768;2023-02-13T07:02:52;101295.59;;;2.77;62.02
6506;BME280;3286;49.858;8.768;2023-02-13T07:05:19;101300.09;;;2.99;60.97
6506;BME280;3286;49.858;8.768;2023-02-13T07:07:45;101298.03;;;2.82;60.88
6506;BME280;3286;49.858;8.768;2023-02-13T07:10:13;101302.38;;;3.10;60.63
6506;BME280;3286;49.858;8.768;2023-02-13T07:12:39;101304.53;;;2.97;60.42
6506;BME280;3286;49.858;8.768;2023-02-13T07:15:08;101309.84;;;3.21;59.95
6506;BME280;3286;49.858;8.768;2023-02-13T07:17:35;101301.72;;;3.55;59.40
6506;BME280;3286;49.858;8.768;2023-02-13T07:20:02;101311.75;;;2.88;62.04
6506;BME280;3286;49.858;8.768;2023-02-13T07:22:30;101307.38;;;3.43;60.91
6506;BME280;3286;49.858;8.768;2023-02-13T07:24:56;101297.16;;;3.62;60.19
6506;BME280;3286;49.858;8.768;2023-02-13T07:27:24;101304.81;;;3.67;61.21
6506;BME280;3286;49.858;8.768;2023-02-13T07:29:53;101306.09;;;4.04;60.18
6506;BME280;3286;49.858;8.768;2023-02-13T07:32:21;101303.91;;;4.17;60.80
6506;BME280;3286;49.858;8.768;2023-02-13T07:34:48;101299.09;;;4.28;61.51
6506;BME280;3286;49.858;8.768;2023-02-13T07:37:14;101296.06;;;4.63;61.71
6506;BME280;3286;49.858;8.768;2023-02-13T07:39:41;101295.69;;;4.95;61.30
6506;BME280;3286;49.858;8.768;2023-02-13T07:42:08;101303.38;;;4.99;61.17
6506;BME280;3286;49.858;8.768;2023-02-13T07:44:34;101291.94;;;5.43;59.81
6506;BME280;3286;49.858;8.768;2023-02-13T07:47:01;101293.31;;;5.52;59.58
6506;BME280;3286;49.858;8.768;2023-02-13T07:49:29;101299.34;;;5.54;58.94
6506;BME280;3286;49.858;8.768;2023-02-13T07:51:56;101301.78;;;5.59;60.29
6506;BME280;3286;49.858;8.768;2023-02-13T07:54:23;101303.38;;;6.03;58.87
6506;BME280;3286;49.858;8.768;2023-02-13T07:56:50;101295.31;;;6.07;57.90
6506;BME280;3286;49.858;8.768;2023-02-13T07:59:16;101300.09;;;6.37;58.36
6506;BME280;3286;49.858;8.768;2023-02-13T08:01:43;101301.78;;;5.59;60.78
6506;BME280;3286;49.858;8.768;2023-02-13T08:04:10;101306.38;;;5.54;61.34
6506;BME280;3286;49.858;8.768;2023-02-13T08:06:39;101296.09;;;6.29;59.46
6506;BME280;3286;49.858;8.768;2023-02-13T08:09:06;101303.34;;;6.23;59.40
6506;BME280;3286;49.858;8.768;2023-02-13T08:11:52;101312.66;;;6.10;60.23
6506;BME280;3286;49.858;8.768;2023-02-13T08:14:19;101296.72;;;6.34;59.33
6506;BME280;3286;49.858;8.768;2023-02-13T08:16:45;101309.13;;;6.30;60.37
6506;BME280;3286;49.858;8.768;2023-02-13T08:19:12;101300.84;;;6.59;59.11
6506;BME280;3286;49.858;8.768;2023-02-13T08:21:40;101308.22;;;6.12;59.67
6506;BME280;3286;49.858;8.768;2023-02-13T08:24:07;101314.13;;;6.36;59.02
6506;BME280;3286;49.858;8.768;2023-02-13T08:26:34;101311.56;;;6.91;57.17
6506;BME280;3286;49.858;8.768;2023-02-13T08:29:01;101310.13;;;7.03;56.30
6506;BME280;3286;49.858;8.768;2023-02-13T08:31:27;101310.22;;;7.01;56.83
6506;BME280;3286;49.858;8.768;2023-02-13T08:33:54;101311.34;;;6.95;57.44
6506;BME280;3286;49.858;8.768;2023-02-13T08:36:21;101318.66;;;6.33;59.10
6506;BME280;3286;49.858;8.768;2023-02-13T08:38:50;101311.50;;;6.92;57.16
6506;BME280;3286;49.858;8.768;2023-02-13T08:41:16;101313.78;;;7.18;57.03
6506;BME280;3286;49.858;8.768;2023-02-13T08:43:45;101316.91;;;6.89;57.51
6506;BME280;3286;49.858;8.768;2023-02-13T08:46:11;101314.53;;;6.27;59.18
6506;BME280;3286;49.858;8.768;2023-02-13T08:48:38;101318.47;;;5.56;61.28
6506;BME280;3286;49.858;8.768;2023-02-13T08:51:05;101311.75;;;6.69;58.63
6506;BME280;3286;49.858;8.768;2023-02-13T08:53:33;101312.69;;;7.22;57.41
6506;BME280;3286;49.858;8.768;2023-02-13T08:56:02;101306.50;;;7.76;54.87
6506;BME280;3286;49.858;8.768;2023-02-13T08:58:29;101311.59;;;7.95;55.37
6506;BME280;3286;49.858;8.768;2023-02-13T09:00:56;101305.72;;;8.07;54.60
6506;BME280;3286;49.858;8.768;2023-02-13T09:03:23;101297.59;;;8.44;53.69
6506;BME280;3286;49.858;8.768;2023-02-13T09:05:49;101298.47;;;8.61;52.33
6506;BME280;3286;49.858;8.768;2023-02-13T09:08:16;101312.53;;;7.60;55.47
6506;BME280;3286;49.858;8.768;2023-02-13T09:10:43;101305.25;;;8.49;53.23
6506;BME280;3286;49.858;8.768;2023-02-13T09:13:11;101309.91;;;8.44;52.97
6506;BME280;3286;49.858;8.768;2023-02-13T09:15:38;101304.44;;;8.95;53.13
6506;BME280;3286;49.858;8.768;2023-02-13T09:18:05;101298.97;;;8.67;53.91
6506;BME280;3286;49.858;8.768;2023-02-13T09:20:32;101291.06;;;9.14;52.36
6506;BME280;3286;49.858;8.768;2023-02-13T09:22:58;101291.50;;;9.37;52.21
6506;BME280;3286;49.858;8.768;2023-02-13T09:25:25;101296.44;;;9.57;51.18
6506;BME280;3286;49.858;8.768;2023-02-13T09:27:52;101292.66;;;8.86;53.24
6506;BME280;3286;49.858;8.768;2023-02-13T09:30:20;101297.94;;;8.86;52.97
6506;BME280;3286;49.858;8.768;2023-02-13T09:32:48;101287.31;;;9.18;52.42
6506;BME280;3286;49.858;8.768;2023-02-13T09:35:15;101295.22;;;8.55;54.24
6506;BME280;3286;49.858;8.768;2023-02-13T09:37:42;101297.78;;;8.73;53.68
6506;BME280;3286;49.858;8.768;2023-02-13T09:40:15;101295.13;;;9.20;53.16
6506;BME280;3286;49.858;8.768;2023-02-13T09:42:44;101287.78;;;9.70;51.70
6506;BME280;3286;49.858;8.768;2023-02-13T09:45:13;101289.44;;;9.42;52.17
6506;BME280;3286;49.858;8.768;2023-02-13T09:47:43;101291.31;;;9.40;52.88
6506;BME280;3286;49.858;8.768;2023-02-13T09:50:13;101287.81;;;8.94;53.89
6506;BME280;3286;49.858;8.768;2023-02-13T09:52:43;101291.31;;;9.25;52.70
6506;BME280;3286;49.858;8.768;2023-02-13T09:55:16;101290.88;;;9.62;52.40
6506;BME280;3286;49.858;8.768;2023-02-13T09:57:46;101295.66;;;10.28;50.90
6506;BME280;3286;49.858;8.768;2023-02-13T10:00:20;101292.94;;;9.57;51.44
6506;BME280;3286;49.858;8.768;2023-02-13T10:03:06;101301.19;;;9.06;53.82
6506;BME280;3286;49.858;8.768;2023-02-13T10:05:45;101298.41;;;9.68;51.61
6506;BME280;3286;49.858;8.768;2023-02-13T10:08:21;101298.16;;;9.73;51.82
6506;BME280;3286;49.858;8.768;2023-02-13T10:10:52;101293.72;;;9.59;51.81
6506;BME280;3286;49.858;8.768;2023-02-13T10:13:34;101296.47;;;10.15;50.14
6506;BME280;3286;49.858;8.768;2023-02-13T10:16:09;101283.19;;;10.59;49.80
6506;BME280;3286;49.858;8.768;2023-02-13T10:18:44;101290.00;;;10.34;49.79
6506;BME280;3286;49.858;8.768;2023-02-13T10:21:13;101299.47;;;10.09;50.64
6506;BME280;3286;49.858;8.768;2023-02-13T10:23:47;101294.50;;;10.61;48.79
6506;BME280;3286;49.858;8.768;2023-02-13T10:26:18;101291.06;;;9.74;51.65
6506;BME280;3286;49.858;8.768;2023-02-13T10:28:48;101288.25;;;10.20;51.03
6506;BME280;3286;49.858;8.768;2023-02-13T10:31:38;101277.16;;;11.38;47.43
6506;BME280;3286;49.858;8.768;2023-02-13T10:34:11;101283.91;;;11.81;47.24
6506;BME280;3286;49.858;8.768;2023-02-13T10:36:43;101291.19;;;11.12;48.05
6506;BME280;3286;49.858;8.768;2023-02-13T10:39:21;101281.28;;;10.89;48.61
6506;BME280;3286;49.858;8.768;2023-02-13T10:41:51;101286.91;;;11.50;47.45
6506;BME280;3286;49.858;8.768;2023-02-13T10:44:36;101278.16;;;12.63;45.39
6506;BME280;3286;49.858;8.768;2023-02-13T10:47:14;101277.66;;;11.82;46.55
6506;BME280;3286;49.858;8.768;2023-02-13T10:49:54;101278.22;;;11.74;47.13
6506;BME280;3286;49.858;8.768;2023-02-13T10:52:31;101271.41;;;11.83;46.81
6506;BME280;3286;49.858;8.768;2023-02-13T10:55:13;101270.25;;;12.13;45.49
6506;BME280;3286;49.858;8.768;2023-02-13T10:57:58;101262.47;;;12.36;45.19
6506;BME280;3286;49.858;8.768;2023-02-13T11:00:32;101258.97;;;12.22;45.98
6506;BME280;3286;49.858;8.768;2023-02-13T11:03:00;101259.97;;;11.95;46.36
6506;BME280;3286;49.858;8.768;2023-02-13T11:05:32;101257.25;;;12.58;44.88
6506;BME280;3286;49.858;8.768;2023-02-13T11:07:59;101252.56;;;13.22;43.72
6506;BME280;3286;49.858;8.768;2023-02-13T11:10:26;101251.50;;;12.89;43.79
6506;BME280;3286;49.858;8.768;2023-02-13T11:12:54;101251.59;;;12.14;45.84
6506;BME280;3286;49.858;8.768;2023-02-13T11:15:24;101245.34;;;12.15;45.42
6506;BME280;3286;49.858;8.768;2023-02-13T11:17:52;101248.31;;;12.11;46.07
6506;BME280;3286;49.858;8.768;2023-02-13T11:20:28;101236.06;;;13.30;43.31
6506;BME280;3286;49.858;8.768;2023-02-13T11:25:56;101232.44;;;12.59;42.20
6506;BME280;3286;49.858;8.768;2023-02-13T11:28:26;101226.97;;;12.74;42.98
6506;BME280;3286;49.858;8.768;2023-02-13T11:31:07;101227.44;;;13.51;41.39
6506;BME280;3286;49.858;8.768;2023-02-13T11:33:35;101224.72;;;13.28;41.51
6506;BME280;3286;49.858;8.768;2023-02-13T11:36:06;101226.31;;;12.35;44.30
6506;BME280;3286;49.858;8.768;2023-02-13T11:38:35;101229.91;;;11.83;45.40
6506;BME280;3286;49.858;8.768;2023-02-13T11:41:07;101232.81;;;12.55;43.24
6506;BME280;3286;49.858;8.768;2023-02-13T11:43:36;101222.03;;;11.44;46.33
6506;BME280;3286;49.858;8.768;2023-02-13T11:46:15;101221.53;;;12.75;43.03
6506;BME280;3286;49.858;8.768;2023-02-13T11:48:44;101214.41;;;12.65;42.66
6506;BME280;3286;49.858;8.768;2023-02-13T11:51:34;101212.66;;;12.52;43.49
6506;BME280;3286;49.858;8.768;2023-02-13T11:54:02;101213.66;;;12.87;42.62
6506;BME280;3286;49.858;8.768;2023-02-13T11:56:46;101211.09;;;12.50;44.33
6506;BME280;3286;49.858;8.768;2023-02-13T11:59:13;101203.88;;;13.46;41.96
6506;BME280;3286;49.858;8.768;2023-02-13T12:01:40;101201.31;;;14.01;41.11
6506;BME280;3286;49.858;8.768;2023-02-13T12:04:14;101200.28;;;14.25;39.94
6506;BME280;3286;49.858;8.768;2023-02-13T12:06:59;101199.78;;;13.76;39.98
6506;BME280;3286;49.858;8.768;2023-02-13T12:09:28;101199.84;;;14.09;40.18
6506;BME280;3286;49.858;8.768;2023-02-13T12:11:57;101205.25;;;13.16;41.87
6506;BME280;3286;49.858;8.768;2023-02-13T12:14:30;101194.53;;;13.29;41.35
6506;BME280;3286;49.858;8.768;2023-02-13T12:17:00;101197.44;;;12.79;42.13
6506;BME280;3286;49.858;8.768;2023-02-13T12:19:34;101197.00;;;13.43;41.41
6506;BME280;3286;49.858;8.768;2023-02-13T12:22:13;101193.94;;;13.25;40.94
6506;BME280;3286;49.858;8.768;2023-02-13T12:25:23;101196.88;;;13.45;40.73
6506;BME280;3286;49.858;8.768;2023-02-13T12:27:58;101189.63;;;14.37;39.07
6506;BME280;3286;49.858;8.768;2023-02-13T12:31:02;101189.50;;;13.71;39.55
6506;BME280;3286;49.858;8.768;2023-02-13T12:34:00;101190.69;;;14.01;39.60
6506;BME280;3286;49.858;8.768;2023-02-13T12:36:40;101187.03;;;14.46;38.55
6506;BME280;3286;49.858;8.768;2023-02-13T12:39:16;101190.94;;;14.42;38.48
6506;BME280;3286;49.858;8.768;2023-02-13T12:41:53;101192.03;;;13.96;39.60
6506;BME280;3286;49.858;8.768;2023-02-13T12:45:01;101182.53;;;14.91;37.02
6506;BME280;3286;49.858;8.768;2023-02-13T12:47:37;101182.13;;;14.42;37.64
6506;BME280;3286;49.858;8.768;2023-02-13T12:50:20;101184.78;;;14.42;37.95
6506;BME280;3286;49.858;8.768;2023-02-13T12:52:58;101178.94;;;14.81;37.54
6506;BME280;3286;49.858;8.768;2023-02-13T12:55:50;101179.03;;;14.25;38.57
6506;BME280;3286;49.858;8.768;2023-02-13T12:58:34;101169.63;;;15.39;36.54
6506;BME280;3286;49.858;8.768;2023-02-13T13:01:14;101166.63;;;14.03;39.47
6506;BME280;3286;49.858;8.768;2023-02-13T13:03:50;101163.41;;;13.31;40.91
6506;BME280;3286;49.858;8.768;2023-02-13T13:09:40;101165.34;;;13.29;40.37
6506;BME280;3286;49.858;8.768;2023-02-13T13:12:20;101153.13;;;14.71;38.60
6506;BME280;3286;49.858;8.768;2023-02-13T13:14:54;101156.50;;;14.08;40.05
6506;BME280;3286;49.858;8.768;2023-02-13T13:17:37;101155.47;;;15.17;37.79
6506;BME280;3286;49.858;8.768;2023-02-13T13:20:27;101152.84;;;14.20;39.32
6506;BME280;3286;49.858;8.768;2023-02-13T13:23:03;101154.34;;;14.34;38.29
6506;BME280;3286;49.858;8.768;2023-02-13T13:25:35;101140.38;;;15.17;37.43
6506;BME280;3286;49.858;8.768;2023-02-13T13:28:12;101146.28;;;15.00;37.03
6506;BME280;3286;49.858;8.768;2023-02-13T13:30:42;101139.06;;;14.48;39.02
6506;BME280;3286;49.858;8.768;2023-02-13T13:33:15;101135.97;;;14.64;38.17
6506;BME280;3286;49.858;8.768;2023-02-13T13:35:45;101140.72;;;14.82;37.87
6506;BME280;3286;49.858;8.768;2023-02-13T13:38:17;101143.94;;;13.99;39.93
6506;BME280;3286;49.858;8.768;2023-02-13T13:40:53;101130.63;;;14.43;38.69
6506;BME280;3286;49.858;8.768;2023-02-13T13:43:26;101134.13;;;14.64;38.30
6506;BME280;3286;49.858;8.768;2023-02-13T13:46:02;101126.88;;;14.88;37.74
6506;BME280;3286;49.858;8.768;2023-02-13T13:48:56;101121.41;;;15.11;37.01
6506;BME280;3286;49.858;8.768;2023-02-13T13:51:25;101123.91;;;15.84;35.94
6506;BME280;3286;49.858;8.768;2023-02-13T13:54:23;101129.47;;;14.36;38.19
6506;BME280;3286;49.858;8.768;2023-02-13T13:57:09;101128.56;;;14.89;37.84